Chiswick, United Kingdom
Current Conditions -  °F | °C
As of 6:50 PM on Saturday 25 Oct 2014 (Local Time) from EGWU Reporting Station
Broken Clouds Broken Clouds  
Wind Chill: 55°   Ceiling: 4600
Heat Index: 55°   Visibility: 6mi
Dew Point: 45°   Wind: 8mph
Humidity: 67%   Direction: 240°WSW
Pressure: 30.09"   Gusts: NA
Location:  51.5°N, 0.25°W
Report Text: EGWU 251750Z 24007KT 9999 BKN046 13/07 Q1019 BLU NOSIG
Loading
Personal Weather Stations






























Interactive Weather Map
Tropical Storm Tracking
New forecast layout! Learn more

10-Day Weather Forecast

Advertisements
Track Severe Weather on mobile